Wednesday, November 22, 2017, 9:04 AM GMT
Back to Local

CYCX, Gagetown Can-Mil

Location: , , Canada Lat: 45.833
Local Time: 9:04 AM GMT ( 9:04 GMT) Lon: -66.433
Time Zone: GMT Elev: 167 ft

Show me the last for .
Show Decoded

2017-11-22 08:00 METAR CYCX 220800Z CCA 25002KT 6SM BR SKC M01/M03 A2998 RMK DA-1711FT SLP153 =
2017-11-22 07:00 METAR CYCX 220700Z 20007KT 15SM SKC 06/05 A2999 RMK DA-802FT SLP157 =
2017-11-22 06:00 METAR CYCX 220600Z 19007KT 15SM SKC 07/05 A2997 RMK DA-741FT SLP152 =
2017-11-22 05:00 METAR CYCX 220500Z 20006KT 15SM FEW170 07/05 A2997 RMK AC1 DA-678FT SLP151 =
2017-11-22 04:00 METAR CYCX 220400Z 19007KT 15SM FEW170 07/05 A2997 RMK AC1 DA-678FT SLP150 =
2017-11-22 03:00 METAR CYCX 220300Z 21006KT 15SM FEW090 SCT220 07/05 A2996 RMK AC2CI2 DA-705FT
                 SLP147 =
2017-11-22 02:00 METAR CYCX 220200Z 19007KT 15SM FEW090 SCT220 08/05 A2995 RMK AC2CI2 DA-620FT
                 SLP144 =
2017-11-22 01:00 METAR CYCX 220100Z 19005KT 15SM FEW090 FEW220 07/04 A2996 RMK AC1CI2 DA-708FT
                 SLP149 =
2017-11-22 00:00 METAR CYCX 220000Z 18005KT 160V220 15SM FEW090 FEW220 06/03 A2997 RMK AC1CI1
                 DA-865FT SLP150 =
2017-11-21 23:00 METAR CYCX 212300Z 19006KT 15SM FEW090 FEW220 05/02 A2997 RMK AC1CI1 DA-1023FT
                 SLP150 =
2017-11-21 22:00 METAR CYCX 212200Z 10002KT 15SM FEW090 SCT220 M01/M03 A2996 RMK AC2CI2 DA-1714FT
                 SLP150 =
2017-11-21 21:00 METAR CYCX 212100Z 11003KT 15SM FEW090 SCT220 02/M02 A2997 RMK AC2CI2 DA-1416FT
                 SLP151 =
2017-11-21 20:00 METAR CYCX 212000Z 15004KT 120V190 15SM BKN020 03/M02 A3000 RMK SC6 DA-1254FT
                 SLP162 =
2017-11-21 19:00 METAR CYCX 211900Z 19004KT 160V220 15SM BKN025 03/M05 A3002 RMK SC6 DA-1291FT
                 SLP168 =
2017-11-21 18:00 METAR CYCX 211800Z 19008KT 160V230 15SM FEW220 03/M07 A3001 RMK CI1 DA-1324FT
                 SLP167 =
2017-11-21 17:00 METAR CYCX 211700Z 17006KT 150V280 15SM FEW045 SCT220 00/M11 A3004 RMK SC1CI2
                 DA-1733FT SLP176 =
2017-11-21 16:00 METAR CYCX 211600Z 19003KT 170V240 15SM BKN041 OVC220 M02/M12 A3007 RMK SC7CI1
                 DA-2091FT SLP185 =
2017-11-21 15:00 METAR CYCX 211500Z 24005KT 190V250 15SM FEW037 BKN220 M04/M13 A3011 RMK SC2CI5
                 DA-2357FT SLP199 =
2017-11-21 14:00 METAR CYCX 211400Z 24006KT 15SM SCT220 M06/M13 A3010 RMK CI3 DA-2527FT SLP196 =
2017-11-21 13:00 METAR CYCX 211300Z 24006KT 15SM FEW220 M07/M13 A3009 RMK CI1 DA-2751FT SLP195 =
2017-11-21 12:00 METAR CYCX 211200Z 24010KT 15SM FEW076 M09/M14 A3009 RMK AC1 DA-2989FT SLP192 =
2017-11-21 11:00 METAR CYCX 211100Z 24010KT 15SM FEW086 M10/M14 A3006 RMK AC1 DA-3021FT SLP182 =
2017-11-21 10:00 METAR CYCX 211000Z 25011KT 15SM FEW086 M09/M14 A3005 RMK AC1 DA-2984FT SLP179 =

Support USWX by starting your Amazon purchase here.